Time;durP1;ratioP1;P1;durP2;ratioP2;P2;SDS_P1;SDS_P2;PMS_P1;PMS_P2;Temp;Humidity;BMP_temperature;BMP_pressure;BME280_temperature;BME280_humidity;BME280_pressure;Samples;Min_cycle;Max_cycle;Signal;HPM_P1;HPM_P2
2022/10/20 04:12:58;;;;;;;4.63;3.13;;;;;;;;;;5555618;22;20545;-94
2022/10/20 04:21:40;;;;;;;3.20;3.00;;;;;;;;;;5306855;22;20515;-94
2022/10/20 04:40:44;;;;;;;3.90;3.60;;;;;;;;;;5534003;22;20508;-92
2022/10/20 04:43:33;;;;;;;3.83;3.50;;;;;;;;;;5027109;28;20643;-93
2022/10/20 04:46:25;;;;;;;3.80;3.50;;;;;;;;;;5034312;28;20458;-93
2022/10/20 05:52:57;;;;;;;4.53;4.10;;;;;;;;;;5052490;28;20506;-93
2022/10/20 05:59:23;;;;;;;4.23;3.80;;;;;;;;;;5348114;22;20581;-92
2022/10/20 06:02:26;;;;;;;4.30;3.90;;;;;;;;;;5041763;28;20529;-92
2022/10/20 06:05:17;;;;;;;3.80;3.50;;;;;;;;;;5026838;28;20456;-94
2022/10/20 06:08:09;;;;;;;5.40;3.90;;;;;;;;;;5034221;28;20480;-93
2022/10/20 06:11:06;;;;;;;8.93;4.23;;;;;;;;;;5042373;28;20443;-93
2022/10/20 06:13:57;;;;;;;7.10;4.83;;;;;;;;;;5022654;28;21051;-92
2022/10/20 06:16:51;;;;;;;5.53;4.60;;;;;;;;;;5029127;28;20452;-93
2022/10/20 06:19:40;;;;;;;5.30;4.40;;;;;;;;;;5034917;28;20480;-92
2022/10/20 06:22:31;;;;;;;7.03;4.43;;;;;;;;;;5040721;28;20464;-92
2022/10/20 06:25:22;;;;;;;4.60;4.20;;;;;;;;;;5045467;28;20437;-93
2022/10/20 06:28:13;;;;;;;6.93;4.43;;;;;;;;;;5039819;28;20471;-93
2022/10/20 06:31:04;;;;;;;5.80;4.60;;;;;;;;;;5047653;28;20477;-92
2022/10/20 06:36:59;;;;;;;7.60;4.90;;;;;;;;;;5042117;28;20492;-92
2022/10/20 06:39:51;;;;;;;6.80;4.73;;;;;;;;;;5035293;28;20445;-93
2022/10/20 06:42:43;;;;;;;6.00;4.73;;;;;;;;;;5034256;28;20491;-93
2022/10/20 06:45:33;;;;;;;5.50;5.00;;;;;;;;;;5030027;28;20814;-93
2022/10/20 06:48:22;;;;;;;10.23;4.73;;;;;;;;;;5034382;28;20464;-93
2022/10/20 06:51:13;;;;;;;6.90;4.30;;;;;;;;;;5038821;28;20458;-93
2022/10/20 06:54:12;;;;;;;7.07;4.90;;;;;;;;;;5049042;28;20453;-93
2022/10/20 07:10:10;;;;;;;6.10;4.40;;;;;;;;;;5041324;28;20440;-91
2022/10/20 07:13:17;;;;;;;4.80;4.30;;;;;;;;;;5043564;28;20467;-92
2022/10/20 07:16:36;;;;;;;4.97;4.33;;;;;;;;;;5039673;28;20466;-93
2022/10/20 11:32:44;;;;;;;5.03;3.67;;;;;;;;;;5006921;28;20474;-94
2022/10/20 13:24:59;;;;;;;6.07;3.70;;;;;;;;;;4976332;28;20495;-95
2022/10/20 13:37:54;;;;;;;4.63;4.33;;;;;;;;;;5349232;23;20490;-94
2022/10/20 16:22:19;;;;;;;7.17;6.47;;;;;;;;;;5007381;28;20458;-91
2022/10/20 16:25:11;;;;;;;6.90;6.30;;;;;;;;;;5009031;28;20454;-91
2022/10/20 16:28:03;;;;;;;6.20;5.70;;;;;;;;;;5007008;28;20774;-91
2022/10/20 16:31:03;;;;;;;6.00;5.47;;;;;;;;;;5104086;23;20540;-91
2022/10/20 16:34:10;;;;;;;6.23;5.73;;;;;;;;;;5016856;28;20457;-91
2022/10/20 16:37:09;;;;;;;6.93;6.07;;;;;;;;;;5006975;28;20506;-89
2022/10/20 16:40:18;;;;;;;7.07;6.37;;;;;;;;;;5018231;28;20463;-91
2022/10/20 16:43:12;;;;;;;6.50;6.00;;;;;;;;;;5012043;28;20434;-92
2022/10/20 16:49:10;;;;;;;6.47;5.90;;;;;;;;;;5014197;28;20497;-93
2022/10/20 16:52:14;;;;;;;7.93;7.13;;;;;;;;;;5012889;28;20447;-92
2022/10/20 16:58:53;;;;;;;8.17;6.70;;;;;;;;;;5010592;28;20438;-92
2022/10/20 17:01:55;;;;;;;7.67;6.97;;;;;;;;;;5011505;28;20444;-92
2022/10/20 17:04:51;;;;;;;7.33;6.57;;;;;;;;;;5017159;28;20668;-91
2022/10/20 17:07:41;;;;;;;6.60;6.00;;;;;;;;;;5015594;28;20485;-92
2022/10/20 17:10:32;;;;;;;7.43;6.70;;;;;;;;;;5013849;28;20478;-91
2022/10/20 17:13:34;;;;;;;8.43;7.27;;;;;;;;;;5013185;28;20465;-92
2022/10/20 17:16:32;;;;;;;7.40;6.70;;;;;;;;;;5007592;28;20453;-92
